createdAt,value
2019-02-27T00:00:17.471Z,15.20
2019-02-27T00:02:50.074Z,16.73
2019-02-27T00:05:20.765Z,16.90
2019-02-27T00:07:51.888Z,15.87
2019-02-27T00:13:17.386Z,15.63
2019-02-27T00:15:49.670Z,14.20
2019-02-27T00:18:23.764Z,13.03
2019-02-27T00:20:53.564Z,13.33
2019-02-27T00:23:24.713Z,13.40
2019-02-27T00:26:17.287Z,16.00
2019-02-27T00:28:55.997Z,14.80
2019-02-27T00:31:50.860Z,13.30
2019-02-27T00:34:21.691Z,13.77
2019-02-27T00:36:58.633Z,13.47
2019-02-27T00:39:42.337Z,14.93
2019-02-27T00:42:22.343Z,14.80
2019-02-27T00:45:14.276Z,13.90
2019-02-27T00:47:48.029Z,14.37
2019-02-27T00:50:38.919Z,14.30
2019-02-27T00:53:15.616Z,14.27
2019-02-27T00:55:48.591Z,14.87
2019-02-27T00:58:26.765Z,14.13
2019-02-27T01:01:23.273Z,14.30
2019-02-27T01:04:00.982Z,15.70
2019-02-27T01:06:45.037Z,15.00
2019-02-27T01:09:16.013Z,15.23
2019-02-27T01:11:51.542Z,14.80
2019-02-27T01:14:19.450Z,15.50
2019-02-27T01:16:53.107Z,14.60
2019-02-27T01:19:45.606Z,14.43
2019-02-27T01:22:18.218Z,15.27
2019-02-27T01:24:51.447Z,15.10
2019-02-27T01:27:28.281Z,15.60
2019-02-27T01:30:18.158Z,15.67
2019-02-27T01:32:50.160Z,14.33
2019-02-27T01:35:24.239Z,15.20
2019-02-27T01:37:55.610Z,16.13
2019-02-27T01:43:24.662Z,15.27
2019-02-27T01:46:00.474Z,15.40
2019-02-27T01:48:48.683Z,15.00
2019-02-27T01:51:20.222Z,15.57
2019-02-27T01:53:59.211Z,15.87
2019-02-27T01:56:47.644Z,14.37
2019-02-27T01:59:22.089Z,16.77
2019-02-27T02:01:58.224Z,15.17
2019-02-27T02:04:52.963Z,16.27
2019-02-27T02:07:26.861Z,15.60
2019-02-27T02:09:59.671Z,15.83
2019-02-27T02:12:45.873Z,16.60
2019-02-27T02:15:45.888Z,15.47
2019-02-27T02:18:45.741Z,16.23
2019-02-27T02:21:49.184Z,17.30
2019-02-27T02:25:19.485Z,15.40
2019-02-27T02:28:36.187Z,15.70
2019-02-27T02:31:46.253Z,15.87
2019-02-27T02:34:49.890Z,13.43
2019-02-27T02:37:59.002Z,14.80
2019-02-27T02:41:13.117Z,14.00
2019-02-27T02:44:20.649Z,14.80
2019-02-27T02:47:21.238Z,15.60
2019-02-27T02:50:32.558Z,15.83
2019-02-27T02:53:34.837Z,17.13
2019-02-27T02:56:50.454Z,14.73
2019-02-27T02:59:49.730Z,14.33
2019-02-27T03:02:46.616Z,14.67
2019-02-27T03:05:46.032Z,14.67
2019-02-27T03:09:14.101Z,15.93
2019-02-27T03:12:43.553Z,14.77
2019-02-27T03:15:52.720Z,15.13
2019-02-27T03:22:56.599Z,13.57
2019-02-27T03:25:53.343Z,15.00
2019-02-27T03:29:15.475Z,14.10
2019-02-27T03:32:00.240Z,15.33
2019-02-27T03:35:27.436Z,14.63
2019-02-27T03:38:28.116Z,13.80
2019-02-27T03:41:40.685Z,14.13
2019-02-27T03:44:47.926Z,14.90
2019-02-27T03:48:11.532Z,15.13
2019-02-27T03:51:11.827Z,13.37
2019-02-27T03:54:20.773Z,15.87
2019-02-27T03:57:18.931Z,15.30
2019-02-27T04:00:21.003Z,14.20
2019-02-27T04:03:19.378Z,15.80
2019-02-27T04:06:23.878Z,15.17
2019-02-27T04:09:18.652Z,14.23
2019-02-27T04:11:45.868Z,15.00
2019-02-27T04:14:45.386Z,14.43
2019-02-27T04:17:16.440Z,14.23
2019-02-27T04:19:49.084Z,16.20
2019-02-27T04:22:25.795Z,14.03
2019-02-27T04:25:18.992Z,14.60
2019-02-27T04:27:55.212Z,14.77
2019-02-27T04:35:41.354Z,13.73
2019-02-27T04:41:18.625Z,13.60
2019-02-27T04:43:49.611Z,15.20
2019-02-27T04:47:03.507Z,13.33
2019-02-27T04:49:34.758Z,14.47
2019-02-27T04:52:06.768Z,14.40
2019-02-27T04:54:41.297Z,13.10
2019-02-27T04:57:09.814Z,14.50
2019-02-27T04:59:40.610Z,14.30
2019-02-27T05:02:12.143Z,13.90
2019-02-27T05:05:06.244Z,14.80
2019-02-27T05:07:35.928Z,14.37
2019-02-27T05:10:07.873Z,15.30
2019-02-27T05:12:47.813Z,14.03
2019-02-27T05:15:32.661Z,14.60
2019-02-27T05:18:03.735Z,13.93
2019-02-27T05:20:36.476Z,15.00
2019-02-27T05:23:41.375Z,13.83
2019-02-27T05:26:17.908Z,15.70
2019-02-27T05:29:29.904Z,14.37
2019-02-27T05:32:05.520Z,13.70
2019-02-27T05:34:39.390Z,15.03
2019-02-27T05:37:14.944Z,13.50
2019-02-27T05:39:58.878Z,13.53
2019-02-27T05:42:33.837Z,14.23
2019-02-27T05:45:11.794Z,14.10
2019-02-27T05:48:00.157Z,13.93
2019-02-27T05:50:34.041Z,14.87
2019-02-27T05:53:06.418Z,14.93
2019-02-27T05:56:05.033Z,14.43
2019-02-27T05:58:36.184Z,14.17
2019-02-27T06:01:28.771Z,14.10
2019-02-27T06:04:18.201Z,14.20
2019-02-27T06:07:18.733Z,15.30
2019-02-27T06:10:13.803Z,14.20
2019-02-27T06:12:49.180Z,13.60
2019-02-27T06:15:34.511Z,15.10
2019-02-27T06:18:08.379Z,13.60
2019-02-27T06:20:47.992Z,14.50
2019-02-27T06:23:19.842Z,13.93
2019-02-27T06:25:59.039Z,15.20
2019-02-27T06:28:31.558Z,13.40
2019-02-27T06:31:13.050Z,15.63
2019-02-27T06:33:46.779Z,14.23
2019-02-27T06:36:21.626Z,14.20
2019-02-27T06:39:15.064Z,15.10
2019-02-27T06:44:49.475Z,13.30
2019-02-27T06:47:25.271Z,15.43
2019-02-27T06:49:58.072Z,14.93
2019-02-27T06:52:49.437Z,16.30
2019-02-27T06:55:40.979Z,15.30
2019-02-27T06:58:14.838Z,12.83
2019-02-27T07:00:57.469Z,14.10
2019-02-27T07:03:29.533Z,14.73
2019-02-27T07:06:29.276Z,14.10
2019-02-27T07:09:02.176Z,15.50
2019-02-27T07:11:33.595Z,14.80
2019-02-27T07:14:47.880Z,14.37
2019-02-27T07:17:25.195Z,16.13
2019-02-27T07:19:59.734Z,15.43
2019-02-27T07:22:48.869Z,13.80
2019-02-27T07:25:19.906Z,15.30
2019-02-27T07:27:51.390Z,13.87
2019-02-27T07:30:26.350Z,14.60
2019-02-27T07:33:23.862Z,14.70
2019-02-27T07:35:54.793Z,15.83
2019-02-27T07:38:28.685Z,15.43
2019-02-27T07:41:25.625Z,14.50
2019-02-27T07:44:49.152Z,14.50
2019-02-27T07:48:19.108Z,15.73
2019-02-27T07:50:57.317Z,15.60
2019-02-27T07:53:43.597Z,14.97
2019-02-27T07:56:29.277Z,16.70
2019-02-27T07:59:23.979Z,14.90
2019-02-27T08:02:14.382Z,15.13
2019-02-27T08:04:51.717Z,14.70
2019-02-27T08:07:24.669Z,15.30
2019-02-27T08:09:56.648Z,14.83
2019-02-27T08:12:27.636Z,15.20
2019-02-27T08:14:59.745Z,15.23
2019-02-27T08:17:30.557Z,16.00
2019-02-27T08:20:01.295Z,15.10
2019-02-27T08:22:32.254Z,16.27
2019-02-27T08:25:02.948Z,14.90
2019-02-27T08:27:33.654Z,17.17
2019-02-27T08:30:05.754Z,15.50
2019-02-27T08:32:36.485Z,16.17
2019-02-27T08:35:07.365Z,15.27
2019-02-27T08:37:38.386Z,15.37
2019-02-27T08:40:09.537Z,14.87
2019-02-27T08:42:40.624Z,16.40
2019-02-27T08:45:19.306Z,13.93
2019-02-27T08:47:45.253Z,15.60
2019-02-27T08:50:16.263Z,15.47
2019-02-27T08:52:50.493Z,16.67
2019-02-27T08:55:22.354Z,18.50
2019-02-27T08:57:55.559Z,15.70
2019-02-27T09:00:24.739Z,15.67
2019-02-27T09:02:56.169Z,15.57
2019-02-27T09:05:26.943Z,14.80
2019-02-27T09:07:57.830Z,15.60
2019-02-27T09:10:30.656Z,16.20
2019-02-27T09:13:05.343Z,16.00
2019-02-27T09:15:33.223Z,15.47
2019-02-27T09:18:11.741Z,15.00
2019-02-27T09:20:43.738Z,15.93
2019-02-27T09:23:14.527Z,13.90
2019-02-27T09:25:45.387Z,15.10
2019-02-27T09:28:16.009Z,14.47
2019-02-27T09:30:46.681Z,15.40
2019-02-27T09:33:19.995Z,15.47
2019-02-27T09:35:50.049Z,14.43
2019-02-27T09:38:24.116Z,16.13
2019-02-27T09:40:53.254Z,14.63
2019-02-27T09:43:26.975Z,14.70
2019-02-27T09:45:56.585Z,15.50
2019-02-27T09:48:27.435Z,14.30
2019-02-27T09:50:58.175Z,15.73
2019-02-27T09:53:28.966Z,16.80
2019-02-27T09:59:57.890Z,15.10
2019-02-27T10:02:51.319Z,16.00
2019-02-27T10:42:32.071Z,16.93
2019-02-27T10:45:04.014Z,16.53
2019-02-27T10:47:36.491Z,14.83
2019-02-27T10:50:07.600Z,16.10
2019-02-27T10:52:38.362Z,16.50
2019-02-27T10:55:11.270Z,15.77
2019-02-27T10:57:43.023Z,16.37
2019-02-27T11:00:25.175Z,15.10
2019-02-27T11:02:55.348Z,16.23
2019-02-27T11:05:26.571Z,15.20
2019-02-27T11:07:57.443Z,14.57
2019-02-27T11:10:28.455Z,14.57
2019-02-27T11:12:59.256Z,16.93
2019-02-27T11:15:29.948Z,14.03
2019-02-27T11:18:04.134Z,15.00
2019-02-27T11:20:33.193Z,15.53
2019-02-27T11:23:07.081Z,14.20
2019-02-27T11:25:36.774Z,15.67
2019-02-27T11:28:07.415Z,14.97
2019-02-27T11:30:38.198Z,14.80
2019-02-27T11:33:09.235Z,15.00
2019-02-27T11:35:40.167Z,14.27
2019-02-27T11:38:11.206Z,13.43
2019-02-27T11:40:42.932Z,15.90
2019-02-27T11:43:14.822Z,15.60
2019-02-27T11:45:45.588Z,15.00
2019-02-27T11:48:16.308Z,15.30
2019-02-27T11:50:46.925Z,15.10
2019-02-27T11:53:18.022Z,15.30
2019-02-27T11:55:48.816Z,14.57
2019-02-27T11:58:19.693Z,15.57
2019-02-27T12:00:50.414Z,12.50
2019-02-27T12:03:20.980Z,13.70
2019-02-27T12:05:51.647Z,14.70
2019-02-27T12:08:24.843Z,13.53
2019-02-27T12:10:56.823Z,13.10
2019-02-27T12:13:27.692Z,12.47
2019-02-27T12:15:58.449Z,13.00
2019-02-27T12:18:29.275Z,11.77
2019-02-27T12:20:59.920Z,12.47
2019-02-27T12:23:30.786Z,11.90
2019-02-27T12:26:02.493Z,11.77
2019-02-27T12:28:33.908Z,11.63
2019-02-27T12:31:05.091Z,12.00
2019-02-27T12:33:36.181Z,10.93
2019-02-27T12:36:09.015Z,12.03
2019-02-27T12:38:42.318Z,11.50
2019-02-27T12:41:13.856Z,12.67
2019-02-27T12:43:52.123Z,10.70
2019-02-27T12:46:19.946Z,11.17
2019-02-27T12:48:50.729Z,11.03
2019-02-27T12:51:22.486Z,10.90
2019-02-27T12:53:54.561Z,11.63
2019-02-27T12:56:25.705Z,11.00
2019-02-27T12:58:58.611Z,11.17
2019-02-27T13:01:36.848Z,10.13
2019-02-27T13:04:07.535Z,9.63
2019-02-27T13:06:38.469Z,9.60
2019-02-27T13:09:09.248Z,9.30
2019-02-27T13:11:41.948Z,8.60
2019-02-27T13:14:12.228Z,9.07
2019-02-27T13:16:43.153Z,9.80
2019-02-27T13:19:13.988Z,8.60
2019-02-27T13:21:44.721Z,9.03
2019-02-27T13:24:16.036Z,8.83
2019-02-27T13:26:46.721Z,9.37
2019-02-27T13:29:20.595Z,9.43
2019-02-27T13:31:52.157Z,8.97
2019-02-27T13:34:25.375Z,9.20
2019-02-27T13:36:56.099Z,9.43
2019-02-27T13:39:26.785Z,8.80
2019-02-27T13:42:03.128Z,9.43
2019-02-27T13:44:35.529Z,9.13
2019-02-27T13:47:06.328Z,9.67
2019-02-27T13:49:37.053Z,9.80
2019-02-27T13:52:12.681Z,9.40
2019-02-27T13:54:43.767Z,11.00
2019-02-27T13:57:14.434Z,10.93
2019-02-27T13:59:45.678Z,9.27
2019-02-27T14:02:16.558Z,9.60
2019-02-27T14:04:47.445Z,10.33
2019-02-27T14:07:18.237Z,10.70
2019-02-27T14:09:50.465Z,10.57
2019-02-27T14:12:21.174Z,12.73
2019-02-27T14:14:53.811Z,9.63
2019-02-27T14:17:25.777Z,11.03
2019-02-27T14:19:56.480Z,11.17
2019-02-27T14:22:27.246Z,12.27
2019-02-27T14:24:58.386Z,9.77
2019-02-27T14:27:29.315Z,11.27
2019-02-27T14:30:03.457Z,8.87
2019-02-27T14:32:36.373Z,9.27
2019-02-27T14:35:07.233Z,11.43
2019-02-27T14:37:38.005Z,8.27
2019-02-27T14:40:11.330Z,9.80
2019-02-27T14:42:42.057Z,9.00
2019-02-27T14:45:18.706Z,8.30
2019-02-27T14:47:49.611Z,9.23
2019-02-27T14:50:21.528Z,8.03
2019-02-27T14:52:57.765Z,8.10
2019-02-27T14:55:29.497Z,8.03
2019-02-27T14:58:03.470Z,8.20
2019-02-27T15:00:40.307Z,7.03
2019-02-27T15:03:09.843Z,6.40
2019-02-27T15:05:44.715Z,6.83
2019-02-27T15:08:15.878Z,6.37
2019-02-27T15:10:46.526Z,7.40
2019-02-27T15:13:18.537Z,6.83
2019-02-27T15:15:53.165Z,6.90
2019-02-27T15:18:25.522Z,7.67
2019-02-27T15:20:59.604Z,6.23
2019-02-27T15:23:34.857Z,6.13
2019-02-27T15:26:07.162Z,6.17
2019-02-27T15:28:37.817Z,6.40
2019-02-27T15:31:14.606Z,6.23
2019-02-27T15:33:45.241Z,6.57
2019-02-27T15:36:20.332Z,6.20
2019-02-27T15:38:52.874Z,6.37
2019-02-27T15:41:23.733Z,6.73
2019-02-27T15:44:00.117Z,8.00
2019-02-27T15:46:28.214Z,6.93
2019-02-27T15:49:00.682Z,7.30
2019-02-27T15:51:33.236Z,7.10
2019-02-27T15:54:06.313Z,7.30
2019-02-27T15:56:41.989Z,6.40
2019-02-27T15:59:12.362Z,7.53
2019-02-27T16:01:43.322Z,6.80
2019-02-27T16:04:14.047Z,6.40
2019-02-27T16:06:44.728Z,6.83
2019-02-27T16:09:15.576Z,6.73
2019-02-27T16:11:48.149Z,7.00
2019-02-27T16:14:18.618Z,7.10
2019-02-27T16:16:49.528Z,7.80
2019-02-27T16:19:20.327Z,8.00
2019-02-27T16:21:56.847Z,8.10
2019-02-27T16:24:26.468Z,8.50
2019-02-27T16:26:57.981Z,8.10
2019-02-27T16:29:30.628Z,8.00
2019-02-27T16:32:02.979Z,7.57
2019-02-27T16:34:34.107Z,7.30
2019-02-27T16:37:05.308Z,8.87
2019-02-27T16:39:41.766Z,8.20
2019-02-27T16:42:12.115Z,7.83
2019-02-27T16:44:42.838Z,7.20
2019-02-27T16:47:19.601Z,8.87
2019-02-27T16:49:55.231Z,10.00
2019-02-27T16:52:26.609Z,9.77
2019-02-27T16:55:00.760Z,8.83
2019-02-27T16:57:30.152Z,8.80
2019-02-27T17:00:02.016Z,8.37
2019-02-27T17:02:37.877Z,7.70
2019-02-27T17:05:08.796Z,9.20
2019-02-27T17:07:40.485Z,8.20
2019-02-27T17:10:17.881Z,8.70
2019-02-27T17:12:53.975Z,9.03
2019-02-27T17:15:35.839Z,8.17
2019-02-27T17:18:06.263Z,8.70
2019-02-27T17:20:37.275Z,9.20
2019-02-27T17:23:10.818Z,8.63
2019-02-27T17:25:40.851Z,9.17
2019-02-27T17:28:11.729Z,8.47
2019-02-27T17:30:43.694Z,10.40
2019-02-27T17:33:15.865Z,11.00
2019-02-27T17:35:46.744Z,10.40
2019-02-27T17:38:17.513Z,10.77
2019-02-27T17:40:48.277Z,11.80
2019-02-27T17:43:19.389Z,12.47
2019-02-27T17:45:59.133Z,15.57
2019-02-27T17:48:36.421Z,13.20
2019-02-27T17:51:07.332Z,14.40
2019-02-27T17:53:38.009Z,14.70
2019-02-27T17:56:15.642Z,14.47
2019-02-27T17:58:47.295Z,12.93
2019-02-27T18:01:24.909Z,12.90
2019-02-27T18:03:53.744Z,13.10
2019-02-27T18:06:24.635Z,12.13
2019-02-27T18:08:55.620Z,13.33
2019-02-27T18:11:26.271Z,12.90
2019-02-27T18:13:56.934Z,13.13
2019-02-27T18:16:36.808Z,14.30
2019-02-27T18:19:19.233Z,13.80
2019-02-27T18:21:50.057Z,12.77
2019-02-27T18:24:20.877Z,13.37
2019-02-27T18:26:59.429Z,13.17
2019-02-27T18:29:41.262Z,13.20
2019-02-27T18:32:11.369Z,12.57
2019-02-27T18:34:42.556Z,12.00
2019-02-27T18:37:14.534Z,13.30
2019-02-27T18:39:46.380Z,12.57
2019-02-27T18:42:20.718Z,11.40
2019-02-27T18:44:50.961Z,12.90
2019-02-27T18:47:21.873Z,12.17
2019-02-27T18:49:53.029Z,11.40
2019-02-27T18:52:24.154Z,13.17
2019-02-27T18:54:55.615Z,10.80
2019-02-27T18:57:32.118Z,12.13
2019-02-27T19:00:16.397Z,11.47
2019-02-27T19:02:52.080Z,11.90
2019-02-27T19:05:23.904Z,12.03
2019-02-27T19:07:55.185Z,12.00
2019-02-27T19:10:28.707Z,11.07
2019-02-27T19:13:00.977Z,10.53
2019-02-27T19:15:32.577Z,11.27
2019-02-27T19:18:07.347Z,11.77
2019-02-27T19:20:38.625Z,11.33
2019-02-27T19:23:17.378Z,11.70
2019-02-27T19:25:47.366Z,12.27
2019-02-27T19:28:18.656Z,11.17
2019-02-27T19:30:50.206Z,12.80
2019-02-27T19:33:21.393Z,13.20
2019-02-27T19:35:56.510Z,11.53
2019-02-27T19:38:34.738Z,12.27
2019-02-27T19:41:09.464Z,11.27
2019-02-27T19:43:40.679Z,12.30
2019-02-27T19:46:11.696Z,11.60
2019-02-27T19:48:48.972Z,11.67
2019-02-27T19:51:17.108Z,12.97
2019-02-27T19:53:48.409Z,12.73
2019-02-27T19:56:21.666Z,10.77
2019-02-27T19:59:10.398Z,11.33
2019-02-27T20:01:46.301Z,11.23
2019-02-27T20:04:13.869Z,11.20
2019-02-27T20:06:45.277Z,11.60
2019-02-27T20:09:20.128Z,10.17
2019-02-27T20:11:49.905Z,12.10
2019-02-27T20:14:20.885Z,11.60
2019-02-27T20:16:54.908Z,10.30
2019-02-27T20:19:32.000Z,10.40
2019-02-27T20:22:05.718Z,10.07
2019-02-27T20:24:36.468Z,11.00
2019-02-27T20:27:11.955Z,10.10
2019-02-27T20:29:46.045Z,9.43
2019-02-27T20:32:17.031Z,10.90
2019-02-27T20:34:49.577Z,10.57
2019-02-27T20:37:20.527Z,11.53
2019-02-27T20:39:51.721Z,10.93
2019-02-27T20:42:22.497Z,10.43
2019-02-27T20:45:01.655Z,10.43
2019-02-27T20:47:32.949Z,10.67
2019-02-27T20:50:34.171Z,9.70
2019-02-27T20:53:10.542Z,10.60
2019-02-27T20:55:40.722Z,10.70
2019-02-27T20:58:17.407Z,11.20
2019-02-27T21:00:53.178Z,10.77
2019-02-27T21:03:27.972Z,10.77
2019-02-27T21:06:01.091Z,11.70
2019-02-27T21:08:33.278Z,10.63
2019-02-27T21:11:05.360Z,11.60
2019-02-27T21:13:49.367Z,10.20
2019-02-27T21:16:19.419Z,11.83
2019-02-27T21:18:52.261Z,10.77
2019-02-27T21:21:25.494Z,11.67
2019-02-27T21:23:56.219Z,12.13
2019-02-27T21:26:27.111Z,10.80
2019-02-27T21:29:01.062Z,11.60
2019-02-27T21:31:31.799Z,12.23
2019-02-27T21:34:02.497Z,11.90
2019-02-27T21:36:37.974Z,12.00
2019-02-27T21:39:08.708Z,11.13
2019-02-27T21:41:42.247Z,10.73
2019-02-27T21:44:25.057Z,11.60
2019-02-27T21:46:47.445Z,10.37
2019-02-27T21:49:18.345Z,10.37
2019-02-27T21:51:49.053Z,10.80
2019-02-27T21:54:19.918Z,10.37
2019-02-27T21:56:51.820Z,10.37
2019-02-27T21:59:26.526Z,11.90
2019-02-27T22:02:00.227Z,9.17
2019-02-27T22:04:36.863Z,9.93
2019-02-27T22:07:15.094Z,10.03
2019-02-27T22:09:54.139Z,9.77
2019-02-27T22:12:24.427Z,9.73
2019-02-27T22:15:00.854Z,9.07
2019-02-27T22:17:54.125Z,9.20
2019-02-27T22:20:25.799Z,9.33
2019-02-27T22:23:12.690Z,9.70
2019-02-27T22:26:22.066Z,8.37
2019-02-27T22:29:50.105Z,8.07
2019-02-27T22:31:45.573Z,9.40
2019-02-27T22:34:55.684Z,9.33
2019-02-27T22:37:35.016Z,9.30
2019-02-27T22:40:29.613Z,8.97
2019-02-27T22:43:09.537Z,9.80
2019-02-27T22:45:49.919Z,9.37
2019-02-27T22:48:28.865Z,9.10
2019-02-27T22:50:59.626Z,9.13
2019-02-27T22:53:31.829Z,9.70
2019-02-27T22:56:16.042Z,10.27
2019-02-27T22:58:44.079Z,9.37
2019-02-27T23:01:27.848Z,9.87
2019-02-27T23:04:15.063Z,10.17
2019-02-27T23:06:55.825Z,9.90
2019-02-27T23:10:22.324Z,9.83
2019-02-27T23:12:59.059Z,9.53
2019-02-27T23:15:31.671Z,10.20
2019-02-27T23:18:13.031Z,10.57
2019-02-27T23:20:59.061Z,10.00
2019-02-27T23:23:46.889Z,11.83
2019-02-27T23:26:39.535Z,12.67
2019-02-27T23:29:21.019Z,12.00
2019-02-27T23:31:57.002Z,10.80
2019-02-27T23:34:32.723Z,12.13
2019-02-27T23:37:21.654Z,11.63
2019-02-27T23:39:53.144Z,12.10
2019-02-27T23:42:28.009Z,11.20
2019-02-27T23:45:25.941Z,11.47
2019-02-27T23:47:56.367Z,11.03
2019-02-27T23:50:33.563Z,12.07
2019-02-27T23:53:24.380Z,11.17
2019-02-27T23:56:23.162Z,10.33
2019-02-27T23:59:13.071Z,11.00
